Time;durP1;ratioP1;P1;durP2;ratioP2;P2;SDS_P1;SDS_P2;PMS_P1;PMS_P2;Temp;Humidity;BMP_temperature;BMP_pressure;BME280_temperature;BME280_humidity;BME280_pressure;Samples;Min_cycle;Max_cycle;Signal;HPM_P1;HPM_P2
2022/06/05 00:00:21;;;;;;;22.45;15.25;;;20.40;75.50;;;;;;5074575;28;20020;-12
2022/06/05 00:03:13;;;;;;;21.20;15.13;;;20.40;75.80;;;;;;5074661;28;20392;-13
2022/06/05 00:06:06;;;;;;;22.23;14.98;;;20.40;75.80;;;;;;5069775;28;20095;-13
2022/06/05 00:08:56;;;;;;;18.08;13.45;;;20.40;75.90;;;;;;5073478;28;20048;-14
2022/06/05 00:11:23;;;;;;;21.15;15.35;;;20.40;75.90;;;;;;5074542;28;20036;-13
2022/06/05 00:13:52;;;;;;;27.05;17.63;;;20.40;75.90;;;;;;5074504;28;20103;-13
2022/06/05 00:16:28;;;;;;;22.67;16.63;;;20.40;76.10;;;;;;5073926;28;20017;-12
2022/06/05 00:18:54;;;;;;;21.05;13.95;;;20.40;76.10;;;;;;5074033;28;20032;-13
2022/06/05 00:21:21;;;;;;;29.55;22.25;;;20.30;76.20;;;;;;5074010;28;20195;-13
2022/06/05 00:23:51;;;;;;;28.83;18.90;;;20.20;76.60;;;;;;5074190;28;20025;-13
2022/06/05 00:26:36;;;;;;;23.50;17.02;;;20.20;76.80;;;;;;5073783;28;20036;-12
2022/06/05 00:29:10;;;;;;;23.73;15.95;;;20.10;76.90;;;;;;5073992;28;20138;-12
2022/06/05 00:31:42;;;;;;;24.38;18.05;;;20.00;77.00;;;;;;5074388;28;20032;-13
2022/06/05 00:34:08;;;;;;;24.08;17.05;;;20.00;77.10;;;;;;5074080;28;20012;-13
2022/06/05 00:36:50;;;;;;;25.10;16.35;;;20.00;77.40;;;;;;5073580;28;20083;-13
2022/06/05 00:39:43;;;;;;;23.20;16.17;;;19.90;77.40;;;;;;5073735;28;20024;-12
2022/06/05 00:42:11;;;;;;;22.90;15.73;;;19.90;77.50;;;;;;5073905;28;20060;-13
2022/06/05 00:44:39;;;;;;;23.05;16.33;;;19.90;77.60;;;;;;5074100;28;20040;-12
2022/06/05 00:47:08;;;;;;;21.70;15.13;;;19.90;77.50;;;;;;5073321;28;20405;-12
2022/06/05 00:49:40;;;;;;;24.10;16.60;;;19.90;77.50;;;;;;5073470;28;20032;-12
2022/06/05 00:52:09;;;;;;;29.52;21.90;;;19.90;77.60;;;;;;5073645;28;20021;-13
2022/06/05 00:54:35;;;;;;;29.90;20.73;;;19.90;77.60;;;;;;5073840;28;20059;-13
2022/06/05 00:57:05;;;;;;;29.77;18.65;;;19.90;77.80;;;;;;5073869;28;20519;-12
2022/06/05 00:59:31;;;;;;;23.65;17.25;;;19.80;77.90;;;;;;5073488;28;20023;-12
2022/06/05 01:01:58;;;;;;;23.83;17.55;;;19.80;78.00;;;;;;5073997;28;20048;-12
2022/06/05 01:04:25;;;;;;;23.00;16.55;;;19.80;78.10;;;;;;5073324;28;20020;-14
2022/06/05 01:06:52;;;;;;;22.88;17.08;;;19.70;78.10;;;;;;5073935;28;20028;-13
2022/06/05 01:09:19;;;;;;;25.70;17.15;;;19.70;78.10;;;;;;5073591;28;20110;-13
2022/06/05 01:12:17;;;;;;;27.98;19.27;;;19.70;78.20;;;;;;5073462;28;20098;-11
2022/06/05 01:15:04;;;;;;;21.20;15.75;;;19.70;78.50;;;;;;5073265;28;20044;-12
2022/06/05 01:17:34;;;;;;;21.98;15.40;;;19.70;78.50;;;;;;5073222;28;20358;-12
2022/06/05 01:20:11;;;;;;;25.52;17.92;;;19.70;78.30;;;;;;5072555;28;20032;-13
2022/06/05 01:23:19;;;;;;;23.27;17.58;;;19.70;78.30;;;;;;5072787;28;20396;-12
2022/06/05 01:25:45;;;;;;;19.20;14.02;;;19.70;78.50;;;;;;5031092;28;20034;-14
2022/06/05 01:28:16;;;;;;;25.42;15.98;;;19.70;78.50;;;;;;5031159;28;20034;-11
2022/06/05 01:31:06;;;;;;;21.73;14.85;;;19.60;78.50;;;;;;5030913;28;20041;-12
2022/06/05 01:33:33;;;;;;;26.38;17.77;;;19.70;78.60;;;;;;5030907;28;20036;-13
2022/06/05 01:36:37;;;;;;;27.58;18.40;;;19.70;78.60;;;;;;5014436;28;20037;-12
2022/06/05 01:39:10;;;;;;;25.63;18.75;;;19.70;78.90;;;;;;5030478;28;20497;-12
2022/06/05 01:41:44;;;;;;;31.23;21.13;;;19.70;78.70;;;;;;5031316;28;20029;-12
2022/06/05 01:44:23;;;;;;;30.83;21.08;;;19.70;78.90;;;;;;5030965;28;20044;-12
2022/06/05 01:46:50;;;;;;;31.25;19.88;;;19.80;79.40;;;;;;5031230;28;20465;-13
2022/06/05 01:49:41;;;;;;;28.38;18.85;;;19.70;79.40;;;;;;5030827;28;20033;-13
2022/06/05 01:52:12;;;;;;;27.60;18.58;;;19.70;79.00;;;;;;5030862;28;20041;-12
2022/06/05 01:54:54;;;;;;;26.77;18.50;;;19.70;79.00;;;;;;5030827;28;20037;-12
2022/06/05 01:57:23;;;;;;;30.73;22.08;;;19.80;79.00;;;;;;5030862;28;20036;-12
2022/06/05 02:00:10;;;;;;;29.05;20.65;;;19.80;79.30;;;;;;5030748;28;20057;-12
2022/06/05 02:03:03;;;;;;;26.63;19.30;;;19.80;79.30;;;;;;5072873;28;20029;-12
2022/06/05 02:06:07;;;;;;;33.13;22.15;;;19.80;79.10;;;;;;5067112;28;20029;-12
2022/06/05 02:08:46;;;;;;;28.45;18.77;;;19.90;79.60;;;;;;5030721;28;20087;-14
2022/06/05 02:11:12;;;;;;;23.52;16.90;;;19.90;79.40;;;;;;5031465;28;20037;-14
2022/06/05 02:13:38;;;;;;;29.58;19.83;;;19.80;79.20;;;;;;5030574;28;20041;-13
2022/06/05 02:16:04;;;;;;;31.30;21.58;;;19.80;79.30;;;;;;5031002;28;20065;-12
2022/06/05 02:18:32;;;;;;;28.02;20.35;;;19.90;79.90;;;;;;5030295;28;20363;-12
2022/06/05 02:20:58;;;;;;;26.45;18.50;;;19.80;79.60;;;;;;5030537;28;20132;-14
2022/06/05 02:23:27;;;;;;;27.13;20.10;;;19.80;79.50;;;;;;5030989;28;20053;-14
2022/06/05 02:25:54;;;;;;;34.83;23.70;;;19.80;79.70;;;;;;5030521;28;20060;-13
2022/06/05 02:28:21;;;;;;;33.97;22.90;;;19.80;79.90;;;;;;5030298;28;20072;-13
2022/06/05 02:31:18;;;;;;;32.72;23.58;;;19.80;80.50;;;;;;5013748;28;20124;-12
2022/06/05 02:34:26;;;;;;;37.13;25.00;;;19.80;81.40;;;;;;5034186;28;20088;-13
2022/06/05 02:37:03;;;;;;;39.72;27.98;;;19.80;82.00;;;;;;5034269;28;20061;-13
2022/06/05 02:39:32;;;;;;;37.42;25.90;;;19.70;82.50;;;;;;5034057;28;20109;-13
2022/06/05 02:42:32;;;;;;;32.13;21.90;;;19.70;82.60;;;;;;5046494;28;20029;-13
2022/06/05 02:45:23;;;;;;;37.25;26.08;;;19.70;82.60;;;;;;5075602;28;20026;-12
2022/06/05 02:48:08;;;;;;;37.13;25.27;;;19.70;81.80;;;;;;5075915;28;20508;-12
2022/06/05 02:50:45;;;;;;;47.05;32.33;;;19.70;82.00;;;;;;5075780;28;20040;-13
2022/06/05 02:53:13;;;;;;;43.38;29.83;;;19.70;83.30;;;;;;5074693;28;20020;-11
2022/06/05 02:55:39;;;;;;;42.13;29.77;;;19.60;83.50;;;;;;5075942;28;20541;-12
2022/06/05 02:58:06;;;;;;;46.03;30.63;;;19.60;83.50;;;;;;5075815;28;20079;-12
2022/06/05 03:00:35;;;;;;;36.88;26.13;;;19.60;84.00;;;;;;5075508;28;20105;-12
2022/06/05 03:05:46;;;;;;;41.75;27.58;;;19.60;83.00;;;;;;5075627;28;20044;-12
2022/06/05 03:08:15;;;;;;;37.15;26.30;;;19.60;83.30;;;;;;5075578;28;20035;-13
2022/06/05 03:10:42;;;;;;;37.90;28.02;;;19.60;83.10;;;;;;5076102;28;20039;-13
2022/06/05 03:13:09;;;;;;;40.03;25.80;;;19.60;83.80;;;;;;5075823;28;20025;-13
2022/06/05 03:15:35;;;;;;;37.72;27.60;;;19.60;83.50;;;;;;5075715;28;20496;-12
2022/06/05 03:18:01;;;;;;;33.88;23.63;;;19.60;83.80;;;;;;5075329;28;20119;-12
2022/06/05 03:20:28;;;;;;;37.45;24.33;;;19.60;83.60;;;;;;5074983;28;20108;-13
2022/06/05 03:22:54;;;;;;;34.60;24.38;;;19.60;82.70;;;;;;5075569;28;20484;-13
2022/06/05 03:25:24;;;;;;;33.55;22.85;;;19.60;82.50;;;;;;5075189;28;20445;-12
2022/06/05 03:27:50;;;;;;;38.33;27.95;;;19.60;82.50;;;;;;5075572;28;20103;-13
2022/06/05 03:30:17;;;;;;;32.78;22.63;;;19.60;82.50;;;;;;5074810;28;20029;-13
2022/06/05 03:32:44;;;;;;;34.35;24.45;;;19.60;82.50;;;;;;5075004;28;20470;-12
2022/06/05 03:35:11;;;;;;;35.50;23.83;;;19.60;82.50;;;;;;5075229;28;20036;-11
2022/06/05 03:37:37;;;;;;;41.72;28.27;;;19.60;82.60;;;;;;5075181;28;20383;-12
2022/06/05 03:40:13;;;;;;;49.60;34.50;;;19.50;84.40;;;;;;5075149;28;20055;-13
2022/06/05 03:42:39;;;;;;;41.80;30.50;;;19.50;85.70;;;;;;5075607;28;20028;-12
2022/06/05 03:45:05;;;;;;;44.55;31.17;;;19.50;85.70;;;;;;5073827;28;20020;-12
2022/06/05 03:47:32;;;;;;;43.08;30.35;;;19.50;85.80;;;;;;5074566;28;20052;-12
2022/06/05 03:49:58;;;;;;;42.50;29.73;;;19.50;86.30;;;;;;5074812;28;20078;-12
2022/06/05 03:52:24;;;;;;;47.67;32.55;;;19.50;85.90;;;;;;5074399;28;20021;-14
2022/06/05 03:54:50;;;;;;;39.80;28.33;;;19.50;86.00;;;;;;5075093;28;20020;-13
2022/06/05 03:57:16;;;;;;;34.25;25.88;;;19.50;85.60;;;;;;5074863;28;20024;-13
2022/06/05 03:59:42;;;;;;;32.90;22.80;;;19.60;84.60;;;;;;5074848;28;20090;-13
2022/06/05 04:02:08;;;;;;;36.58;25.52;;;19.60;84.20;;;;;;5074412;28;20043;-13
2022/06/05 04:04:34;;;;;;;38.72;26.13;;;19.70;84.10;;;;;;5074084;28;20032;-13
2022/06/05 04:07:00;;;;;;;35.15;25.58;;;19.70;83.70;;;;;;5073043;28;20032;-13
2022/06/05 04:09:26;;;;;;;32.50;23.98;;;19.80;83.90;;;;;;5074366;28;20031;-12
2022/06/05 04:12:13;;;;;;;40.55;29.98;;;19.80;83.70;;;;;;5074321;28;20119;-12
2022/06/05 04:14:39;;;;;;;43.92;30.63;;;19.90;84.50;;;;;;5074083;28;20032;-12
2022/06/05 04:17:06;;;;;;;45.85;31.65;;;19.90;85.20;;;;;;5074544;28;20036;-13
2022/06/05 04:19:32;;;;;;;45.03;31.25;;;19.90;85.10;;;;;;5074010;28;20029;-12
2022/06/05 04:21:58;;;;;;;41.83;27.65;;;20.00;85.40;;;;;;5074349;28;20025;-12
2022/06/05 04:24:24;;;;;;;33.90;24.88;;;20.00;84.80;;;;;;5073935;28;20052;-12
2022/06/05 04:26:50;;;;;;;32.35;23.38;;;20.10;84.30;;;;;;5073969;28;20096;-13
2022/06/05 04:29:16;;;;;;;35.47;24.58;;;20.10;83.80;;;;;;5074176;28;20470;-14
2022/06/05 04:31:46;;;;;;;42.20;28.55;;;20.20;83.40;;;;;;5073688;28;20522;-14
2022/06/05 04:34:15;;;;;;;37.47;25.40;;;20.30;83.40;;;;;;5074078;28;20032;-14
2022/06/05 04:36:42;;;;;;;37.60;26.15;;;20.40;83.40;;;;;;5073696;28;20085;-12
2022/06/05 04:39:09;;;;;;;35.25;24.85;;;20.40;83.40;;;;;;5073803;28;20021;-12
2022/06/05 04:41:36;;;;;;;29.73;22.05;;;20.50;83.10;;;;;;5073667;28;20017;-12
2022/06/05 04:44:02;;;;;;;34.08;23.05;;;20.60;82.70;;;;;;5073667;28;20035;-14
2022/06/05 04:46:30;;;;;;;30.05;21.45;;;20.70;82.50;;;;;;5071990;28;20035;-13
2022/06/05 04:48:57;;;;;;;30.70;22.23;;;20.80;82.00;;;;;;5073561;28;20045;-11
2022/06/05 04:51:24;;;;;;;32.03;22.70;;;20.90;81.70;;;;;;5073482;28;20480;-12
2022/06/05 04:53:52;;;;;;;34.55;24.50;;;20.90;81.70;;;;;;5074084;28;20029;-12
2022/06/05 04:56:24;;;;;;;47.00;31.75;;;21.00;81.50;;;;;;5073839;28;20064;-12
2022/06/05 04:58:51;;;;;;;46.45;30.95;;;21.10;81.80;;;;;;5073421;28;20077;-11
2022/06/05 05:01:29;;;;;;;34.88;22.90;;;21.20;81.50;;;;;;5073679;28;20017;-12
2022/06/05 05:04:02;;;;;;;34.08;24.70;;;21.30;81.10;;;;;;5072155;28;20077;-12
2022/06/05 05:06:32;;;;;;;45.90;32.03;;;21.30;80.70;;;;;;5073854;28;20025;-11
2022/06/05 05:08:58;;;;;;;42.25;27.60;;;21.40;81.30;;;;;;5073596;28;20029;-12
2022/06/05 05:11:26;;;;;;;42.03;28.90;;;21.50;80.80;;;;;;5073157;28;20079;-12
2022/06/05 05:13:56;;;;;;;34.92;25.95;;;21.60;80.40;;;;;;5073230;28;20039;-11
2022/06/05 05:16:24;;;;;;;36.22;26.08;;;21.70;80.50;;;;;;5073002;28;20039;-11
2022/06/05 05:18:50;;;;;;;36.03;26.25;;;21.80;80.20;;;;;;5072893;28;20498;-12
2022/06/05 05:21:20;;;;;;;40.90;29.80;;;21.90;80.10;;;;;;5073458;28;20024;-12
2022/06/05 05:23:47;;;;;;;50.75;33.80;;;22.10;80.30;;;;;;5073108;28;20032;-13
2022/06/05 05:26:15;;;;;;;42.63;29.30;;;22.20;80.00;;;;;;5073043;28;20032;-12
2022/06/05 05:28:43;;;;;;;50.80;33.00;;;22.30;79.20;;;;;;5073355;28;20527;-12
2022/06/05 05:31:13;;;;;;;30.95;22.33;;;22.40;78.70;;;;;;5072977;28;20029;-12
2022/06/05 05:33:40;;;;;;;40.80;28.58;;;22.50;78.50;;;;;;5073232;28;20021;-13
2022/06/05 05:36:08;;;;;;;42.53;28.90;;;22.60;78.70;;;;;;5073199;28;20126;-12
2022/06/05 05:38:36;;;;;;;41.42;28.70;;;22.70;77.90;;;;;;5072749;28;20108;-12
2022/06/05 05:43:47;;;;;;;35.60;25.73;;;22.80;77.30;;;;;;5073256;28;20035;-12
2022/06/05 05:46:16;;;;;;;34.88;23.70;;;22.90;77.20;;;;;;5073043;28;20021;-11
2022/06/05 05:48:42;;;;;;;38.28;27.02;;;23.00;77.00;;;;;;5072776;28;20127;-13
2022/06/05 05:51:15;;;;;;;42.03;27.17;;;23.10;76.50;;;;;;5072716;28;20037;-12
2022/06/05 05:53:42;;;;;;;30.90;22.48;;;23.20;76.50;;;;;;5072856;28;20036;-11
2022/06/05 05:56:10;;;;;;;39.28;27.40;;;23.30;76.50;;;;;;5072828;28;20074;-12
2022/06/05 05:58:38;;;;;;;34.80;23.80;;;23.40;76.20;;;;;;5072881;28;20033;-11
2022/06/05 06:01:07;;;;;;;37.80;26.35;;;23.60;75.90;;;;;;5072762;28;20028;-12
2022/06/05 06:03:35;;;;;;;30.35;22.63;;;23.70;75.50;;;;;;5072681;28;20021;-11
2022/06/05 06:06:02;;;;;;;37.63;25.95;;;23.90;75.40;;;;;;5073323;28;20024;-11
2022/06/05 06:08:29;;;;;;;36.28;24.95;;;24.10;74.90;;;;;;5075870;28;20138;-12
2022/06/05 06:10:55;;;;;;;41.10;27.83;;;24.30;74.30;;;;;;5076476;28;20036;-11
2022/06/05 06:13:22;;;;;;;32.13;23.25;;;24.40;73.80;;;;;;5076515;28;20039;-12
2022/06/05 06:15:49;;;;;;;30.30;21.50;;;24.50;73.10;;;;;;5076726;28;20119;-11
2022/06/05 06:18:18;;;;;;;34.45;23.95;;;24.50;73.10;;;;;;5076216;28;20039;-12
2022/06/05 06:20:45;;;;;;;36.35;24.42;;;24.70;72.40;;;;;;5076367;28;20380;-12
2022/06/05 06:23:12;;;;;;;34.53;23.75;;;24.80;72.80;;;;;;5076313;28;20111;-12
2022/06/05 06:25:39;;;;;;;34.38;23.73;;;24.90;72.30;;;;;;5076876;28;20103;-12
2022/06/05 06:28:07;;;;;;;36.60;25.83;;;24.90;71.80;;;;;;5076179;28;20025;-12
2022/06/05 06:30:35;;;;;;;35.42;24.17;;;25.00;71.60;;;;;;5075808;28;20496;-11
2022/06/05 06:33:01;;;;;;;37.10;20.23;;;25.00;71.40;;;;;;5076476;28;20021;-12
2022/06/05 06:35:27;;;;;;;30.33;22.05;;;25.10;71.40;;;;;;5076051;28;20027;-13
2022/06/05 06:37:54;;;;;;;30.73;22.98;;;25.20;70.90;;;;;;5077166;28;20025;-11
2022/06/05 06:40:20;;;;;;;27.30;19.33;;;25.30;70.40;;;;;;5075860;28;20028;-12
2022/06/05 06:42:46;;;;;;;28.05;18.33;;;25.40;70.50;;;;;;5074846;28;20024;-12
2022/06/05 06:45:13;;;;;;;21.05;16.25;;;25.40;69.80;;;;;;5075962;28;20054;-11
2022/06/05 06:47:40;;;;;;;28.15;17.67;;;25.50;69.20;;;;;;5075717;28;20071;-12
2022/06/05 06:50:06;;;;;;;24.17;17.13;;;25.60;69.20;;;;;;5075790;28;20522;-11
2022/06/05 06:52:32;;;;;;;21.60;14.63;;;25.60;68.40;;;;;;5075741;28;20032;-11
2022/06/05 06:54:58;;;;;;;18.13;11.90;;;25.80;68.10;;;;;;5076003;28;20487;-11
2022/06/05 06:57:24;;;;;;;18.95;11.82;;;26.00;67.00;;;;;;5075054;28;20017;-12
2022/06/05 06:59:50;;;;;;;20.17;12.38;;;26.20;66.20;;;;;;5076332;28;20106;-11
2022/06/05 07:02:16;;;;;;;18.65;12.38;;;26.40;65.00;;;;;;5076048;28;20053;-12
2022/06/05 07:04:42;;;;;;;19.10;11.98;;;26.60;64.90;;;;;;5075482;28;20024;-12
2022/06/05 07:07:08;;;;;;;24.55;12.75;;;26.80;64.70;;;;;;5075776;28;20017;-12
2022/06/05 07:09:34;;;;;;;16.05;10.88;;;26.90;64.00;;;;;;5075980;28;20138;-13
2022/06/05 07:12:00;;;;;;;20.77;13.65;;;27.10;63.40;;;;;;5075596;28;20506;-13
2022/06/05 07:14:27;;;;;;;20.70;13.55;;;27.30;61.00;;;;;;5075194;28;20111;-10
2022/06/05 07:16:54;;;;;;;19.67;13.43;;;27.40;61.30;;;;;;5075677;28;20094;-11
2022/06/05 07:19:20;;;;;;;21.35;14.75;;;27.50;61.30;;;;;;5075638;28;20043;-10
2022/06/05 07:21:46;;;;;;;18.73;12.85;;;27.50;61.80;;;;;;5075279;28;20016;-11
2022/06/05 07:24:12;;;;;;;21.35;15.80;;;27.70;62.10;;;;;;5074047;28;20531;-10
2022/06/05 07:26:39;;;;;;;23.20;14.77;;;27.80;61.10;;;;;;5075000;28;20443;-12
2022/06/05 07:29:05;;;;;;;18.98;13.63;;;27.90;61.60;;;;;;5075629;28;20020;-11
2022/06/05 07:31:32;;;;;;;24.40;15.70;;;28.00;61.40;;;;;;5075054;28;20062;-12
2022/06/05 07:34:00;;;;;;;22.15;14.10;;;28.10;60.90;;;;;;5074965;28;20052;-12
2022/06/05 07:36:27;;;;;;;24.77;15.10;;;28.20;60.70;;;;;;5074800;28;20029;-12
2022/06/05 07:38:55;;;;;;;23.13;14.90;;;28.30;57.90;;;;;;5074905;28;20028;-11
2022/06/05 07:41:27;;;;;;;19.75;14.20;;;28.40;59.50;;;;;;5075192;28;20032;-11
2022/06/05 07:43:54;;;;;;;21.37;14.57;;;28.60;58.30;;;;;;5074906;28;20028;-12
2022/06/05 07:46:21;;;;;;;24.65;14.88;;;28.70;58.90;;;;;;5074464;28;20105;-12
2022/06/05 07:48:48;;;;;;;16.88;11.50;;;28.90;57.90;;;;;;5074679;28;20032;-11
2022/06/05 07:56:48;;;;;;;16.95;12.13;;;29.40;56.70;;;;;;5075246;28;20055;-10
2022/06/05 07:59:14;;;;;;;20.65;12.80;;;29.70;56.80;;;;;;5075166;28;20055;-11
2022/06/05 08:01:40;;;;;;;20.40;12.50;;;29.90;56.50;;;;;;5073300;28;20052;-11
2022/06/05 08:04:07;;;;;;;18.00;12.88;;;30.00;56.50;;;;;;5074184;28;20032;-12
2022/06/05 08:06:34;;;;;;;16.42;11.65;;;30.20;54.90;;;;;;5074143;28;20396;-12
2022/06/05 08:09:02;;;;;;;17.48;11.40;;;30.40;54.80;;;;;;5074360;28;20027;-11
2022/06/05 08:11:28;;;;;;;16.45;10.95;;;30.50;53.30;;;;;;5074481;28;20033;-11
2022/06/05 08:13:55;;;;;;;16.15;8.85;;;30.60;53.80;;;;;;5074579;28;20052;-11
2022/06/05 08:16:21;;;;;;;14.25;8.85;;;30.70;52.90;;;;;;5073987;28;20025;-12
2022/06/05 08:18:47;;;;;;;15.48;8.27;;;30.80;52.80;;;;;;5074354;28;20031;-12
2022/06/05 08:21:13;;;;;;;16.95;8.57;;;30.90;51.10;;;;;;5074376;28;20035;-12
2022/06/05 08:23:39;;;;;;;17.52;8.70;;;30.90;51.10;;;;;;5074036;28;20028;-12
2022/06/05 08:26:05;;;;;;;13.00;7.95;;;30.90;51.10;;;;;;5074045;28;20024;-9
2022/06/05 08:28:31;;;;;;;18.13;9.00;;;31.00;51.60;;;;;;5073912;28;20396;-12
2022/06/05 08:30:57;;;;;;;16.45;8.45;;;30.90;49.70;;;;;;5073823;28;20025;-10
2022/06/05 08:33:24;;;;;;;18.33;8.10;;;31.00;50.70;;;;;;5073894;28;20071;-12
2022/06/05 08:35:50;;;;;;;13.13;7.35;;;31.30;50.10;;;;;;5074065;28;20052;-9
2022/06/05 08:41:30;;;;;;;17.48;7.07;;;31.70;50.20;;;;;;5074127;28;20163;-12
2022/06/05 08:44:14;;;;;;;15.40;7.88;;;31.80;48.90;;;;;;5074054;28;20028;-11
2022/06/05 08:46:51;;;;;;;15.60;7.70;;;32.00;47.70;;;;;;5073529;28;20178;-11
2022/06/05 08:49:43;;;;;;;14.13;6.78;;;32.10;48.20;;;;;;5073516;28;20025;-12
2022/06/05 08:52:36;;;;;;;14.55;6.72;;;32.10;47.80;;;;;;5073866;28;20115;-12
2022/06/05 08:55:02;;;;;;;12.68;7.18;;;32.30;45.40;;;;;;5073498;28;20136;-12
2022/06/05 08:57:45;;;;;;;11.90;7.47;;;32.40;46.50;;;;;;5074084;28;20111;-12
2022/06/05 09:00:20;;;;;;;14.35;7.93;;;32.50;46.40;;;;;;5073631;28;20024;-13
2022/06/05 09:03:35;;;;;;;14.50;7.50;;;32.60;46.20;;;;;;5074056;28;20040;-12
2022/06/05 09:06:12;;;;;;;17.33;7.38;;;32.50;46.90;;;;;;5070430;28;20033;-12
2022/06/05 09:08:42;;;;;;;14.35;7.75;;;32.60;46.60;;;;;;5073168;28;20025;-11
2022/06/05 09:11:29;;;;;;;13.00;7.15;;;32.80;44.70;;;;;;5073212;28;20044;-10
2022/06/05 09:14:01;;;;;;;14.27;7.50;;;32.90;45.90;;;;;;5073636;28;20024;-13
2022/06/05 09:16:33;;;;;;;14.95;7.65;;;32.70;46.30;;;;;;5073097;28;20025;-11
2022/06/05 09:19:02;;;;;;;13.70;7.25;;;32.80;45.40;;;;;;5073212;28;20386;-11
2022/06/05 09:21:44;;;;;;;13.25;6.80;;;33.00;46.40;;;;;;5073154;28;20095;-12
2022/06/05 09:24:41;;;;;;;15.45;7.40;;;33.30;46.20;;;;;;5073240;28;20035;-11
2022/06/05 09:27:27;;;;;;;13.40;6.72;;;33.60;44.30;;;;;;5051686;28;20036;-11
2022/06/05 09:30:11;;;;;;;14.38;6.78;;;33.70;44.40;;;;;;5073734;28;20035;-11
2022/06/05 09:32:59;;;;;;;16.70;7.13;;;33.90;44.90;;;;;;5072879;28;20032;-11
2022/06/05 09:35:29;;;;;;;14.23;7.38;;;34.00;46.10;;;;;;5072993;28;20029;-11
2022/06/05 09:38:24;;;;;;;16.30;7.78;;;34.20;44.20;;;;;;5073057;28;20112;-11
2022/06/05 09:41:03;;;;;;;15.60;8.15;;;34.30;43.70;;;;;;5068169;28;20539;-11
2022/06/05 09:43:41;;;;;;;11.30;7.68;;;34.40;43.80;;;;;;5076572;28;20032;-11
2022/06/05 09:46:40;;;;;;;16.35;7.50;;;34.50;43.40;;;;;;5077037;28;20477;-11
2022/06/05 09:49:25;;;;;;;15.82;7.75;;;34.60;42.90;;;;;;5077331;28;20048;-11
2022/06/05 09:51:51;;;;;;;15.40;8.48;;;34.70;42.00;;;;;;5077281;28;20035;-11
2022/06/05 09:54:20;;;;;;;15.75;7.72;;;34.80;42.70;;;;;;5076789;28;20133;-12
2022/06/05 09:59:53;;;;;;;14.90;7.55;;;34.80;43.30;;;;;;5077206;28;20519;-12
2022/06/05 10:02:24;;;;;;;15.80;7.40;;;35.00;43.80;;;;;;5076799;28;20020;-12
2022/06/05 10:04:51;;;;;;;12.95;7.60;;;35.20;42.60;;;;;;5077044;28;20028;-10
2022/06/05 10:07:26;;;;;;;15.15;8.85;;;35.60;42.70;;;;;;5077039;28;20023;-12
2022/06/05 10:09:54;;;;;;;14.40;7.97;;;35.60;41.20;;;;;;5076660;28;20032;-11
2022/06/05 10:12:36;;;;;;;18.90;8.60;;;35.70;41.40;;;;;;5076464;28;20056;-11
2022/06/05 10:15:06;;;;;;;;;;;35.50;41.90;;;;;;5077421;28;20024;-11
2022/06/05 10:17:57;;;;;;;13.40;7.63;;;35.20;41.60;;;;;;5076512;28;20321;-12
2022/06/05 10:20:23;;;;;;;14.75;8.50;;;35.10;42.60;;;;;;5076362;28;20138;-11
2022/06/05 10:23:13;;;;;;;13.70;8.40;;;34.90;43.30;;;;;;5076910;28;20052;-11
2022/06/05 10:25:45;;;;;;;16.48;8.57;;;34.50;43.10;;;;;;5076626;28;20050;-11
2022/06/05 10:28:16;;;;;;;13.73;7.60;;;34.00;44.70;;;;;;5076301;28;20037;-11
2022/06/05 10:31:00;;;;;;;14.02;8.27;;;34.00;44.50;;;;;;5076084;28;20036;-11
2022/06/05 10:33:39;;;;;;;12.82;7.32;;;33.90;44.70;;;;;;5076495;28;20031;-12
2022/06/05 10:36:32;;;;;;;11.68;6.18;;;33.90;45.30;;;;;;5076148;28;20036;-11
2022/06/05 10:39:16;;;;;;;;;;;34.00;45.20;;;;;;5076566;28;20024;-13
2022/06/05 10:42:06;;;;;;;14.40;8.38;;;34.20;44.00;;;;;;5076658;28;19904;-12
2022/06/05 10:44:59;;;;;;;11.70;7.43;;;34.30;45.00;;;;;;5075894;28;20051;-12
2022/06/05 10:47:53;;;;;;;11.13;6.88;;;34.50;44.20;;;;;;5076167;28;20101;-13
2022/06/05 10:50:35;;;;;;;14.05;7.40;;;34.90;43.50;;;;;;5075570;28;20025;-12
2022/06/05 10:53:26;;;;;;;16.83;7.95;;;35.30;42.20;;;;;;5075526;28;20032;-12
2022/06/05 10:56:04;;;;;;;11.82;5.93;;;35.70;42.40;;;;;;5074615;28;20032;-12
2022/06/05 10:58:36;;;;;;;13.55;6.90;;;36.20;41.90;;;;;;5075608;28;20099;-11
2022/06/05 11:01:23;;;;;;;17.52;7.65;;;36.70;40.80;;;;;;5076368;28;20036;-12
2022/06/05 11:04:06;;;;;;;13.45;7.30;;;37.10;40.60;;;;;;5075622;28;20127;-12
2022/06/05 11:06:50;;;;;;;11.68;6.80;;;37.00;40.00;;;;;;5075825;28;20033;-12
2022/06/05 11:09:37;;;;;;;12.10;7.85;;;37.50;39.40;;;;;;5075608;28;20541;-11
2022/06/05 11:15:26;;;;;;;13.88;6.93;;;38.10;37.60;;;;;;5075974;28;20036;-11
2022/06/05 11:18:08;;;;;;;12.50;7.03;;;38.30;37.80;;;;;;5075523;28;20074;-12
2022/06/05 11:20:35;;;;;;;12.60;7.40;;;38.60;37.70;;;;;;5075435;28;20444;-12
2022/06/05 11:23:13;;;;;;;12.90;6.55;;;38.90;37.10;;;;;;5075370;28;20052;-13
2022/06/05 11:25:49;;;;;;;15.27;7.43;;;39.20;36.90;;;;;;5075286;28;20392;-12
2022/06/05 11:28:27;;;;;;;12.80;7.85;;;39.40;36.40;;;;;;5075059;28;20025;-12
2022/06/05 11:31:05;;;;;;;13.23;6.50;;;39.40;34.90;;;;;;5075132;28;20035;-12
2022/06/05 11:33:40;;;;;;;12.90;6.30;;;39.30;35.80;;;;;;5075124;28;20063;-12
2022/06/05 11:36:30;;;;;;;12.98;6.82;;;39.20;35.90;;;;;;5075009;28;20028;-12
2022/06/05 11:39:23;;;;;;;11.27;6.72;;;39.00;37.10;;;;;;5075237;28;20503;-12
2022/06/05 11:42:16;;;;;;;17.33;6.97;;;38.90;37.10;;;;;;5074985;28;20029;-13
2022/06/05 11:44:46;;;;;;;;;;;38.80;36.10;;;;;;5075714;28;20032;-10
2022/06/05 11:47:51;;;;;;;9.10;6.20;;;38.90;36.50;;;;;;5074703;28;19923;-12
2022/06/05 11:50:48;;;;;;;13.27;7.05;;;39.20;35.90;;;;;;5072568;28;20040;-12
2022/06/05 11:53:53;;;;;;;9.55;6.38;;;39.30;34.90;;;;;;5074684;28;20028;-12
2022/06/05 11:56:59;;;;;;;13.25;6.78;;;39.70;35.70;;;;;;5033233;28;20106;-11
2022/06/05 11:59:40;;;;;;;11.57;6.35;;;39.80;35.50;;;;;;5074823;28;20039;-13
2022/06/05 12:02:09;;;;;;;16.27;7.95;;;39.60;35.70;;;;;;5074776;28;20107;-13
2022/06/05 12:04:47;;;;;;;14.82;7.45;;;39.40;35.90;;;;;;5073337;28;20542;-12
2022/06/05 12:07:14;;;;;;;13.30;7.30;;;39.00;36.10;;;;;;5075061;28;20032;-12
2022/06/05 12:09:58;;;;;;;11.90;6.68;;;39.00;36.60;;;;;;5074998;28;20031;-13
2022/06/05 12:12:36;;;;;;;9.73;6.18;;;39.30;36.30;;;;;;5074407;28;20039;-12
2022/06/05 12:15:14;;;;;;;15.30;6.57;;;39.50;35.60;;;;;;5074668;28;20032;-12
2022/06/05 12:17:57;;;;;;;13.48;7.15;;;39.80;35.00;;;;;;5074250;28;20032;-12
2022/06/05 12:20:44;;;;;;;12.27;6.40;;;40.00;34.30;;;;;;5074224;28;20052;-12
2022/06/05 12:23:33;;;;;;;15.15;7.10;;;40.30;33.90;;;;;;5074452;28;20021;-12
2022/06/05 12:26:24;;;;;;;12.65;6.75;;;40.60;34.30;;;;;;5074124;28;20560;-13
2022/06/05 12:29:12;;;;;;;9.10;5.93;;;41.00;33.30;;;;;;5074064;28;20028;-13
2022/06/05 12:31:58;;;;;;;12.23;6.40;;;41.30;32.80;;;;;;5074541;28;20078;-12
2022/06/05 12:34:29;;;;;;;12.82;6.10;;;41.30;33.00;;;;;;5073665;28;20056;-12
2022/06/05 12:37:33;;;;;;;14.10;6.22;;;41.00;32.70;;;;;;5074722;28;20039;-12
2022/06/05 12:39:59;;;;;;;11.98;6.25;;;40.90;33.20;;;;;;5071694;28;20513;-12
2022/06/05 12:42:25;;;;;;;11.00;5.30;;;41.00;33.30;;;;;;5073710;28;20033;-12
2022/06/05 12:44:53;;;;;;;12.63;5.72;;;41.10;33.10;;;;;;5073658;28;20066;-11
2022/06/05 12:47:21;;;;;;;15.25;6.35;;;41.20;32.50;;;;;;5073393;28;20071;-10
2022/06/05 12:49:50;;;;;;;11.05;5.82;;;40.90;32.50;;;;;;5072297;28;20090;-11
2022/06/05 12:52:45;;;;;;;12.25;5.85;;;40.60;33.20;;;;;;5072497;28;20429;-11
2022/06/05 12:55:17;;;;;;;11.65;5.80;;;40.30;33.20;;;;;;5073601;28;20028;-11
2022/06/05 12:57:46;;;;;;;;;;;40.20;34.10;;;;;;5074218;28;20464;-12
2022/06/05 13:00:35;;;;;;;8.88;4.82;;;40.10;33.40;;;;;;5073576;28;19904;-12
2022/06/05 13:03:20;;;;;;;11.25;5.25;;;40.20;33.70;;;;;;5073732;28;20388;-12
2022/06/05 13:06:04;;;;;;;12.27;4.70;;;40.40;31.80;;;;;;5073470;28;20091;-11
2022/06/05 13:08:48;;;;;;;8.50;3.80;;;40.30;31.10;;;;;;5073614;28;20055;-13
2022/06/05 13:11:26;;;;;;;10.57;4.63;;;40.20;30.90;;;;;;5073598;28;20033;-12
2022/06/05 13:14:10;;;;;;;11.40;4.90;;;40.20;30.30;;;;;;5073262;28;20029;-12
2022/06/05 13:16:54;;;;;;;9.35;4.60;;;40.00;30.50;;;;;;5073021;28;20059;-13
2022/06/05 13:19:44;;;;;;;10.52;4.65;;;39.90;31.10;;;;;;5073131;28;20499;-11
2022/06/05 13:22:23;;;;;;;12.55;4.97;;;39.50;31.50;;;;;;5073372;28;20507;-12
2022/06/05 13:25:15;;;;;;;11.40;4.82;;;39.40;31.90;;;;;;5073207;28;20060;-12
2022/06/05 13:28:15;;;;;;;12.70;4.88;;;39.30;32.50;;;;;;5073215;28;20028;-11